Airfield :
LOGIN :

Register | Disclaimer

   EN    FR    IT 

 










Legend :    VFR   Marginal VFR   IFR   Intensive IFR   Very Intensive IFR
Visi :
Ceiling :
>= 8 km
>= 3000ft
5 to 8 km
1000 to 3000 ft
1500m to 5 km
500 to 1000 ft
800 to 1500m
200 to 500 ft
< 800m
< 200 ft
Symbols :   Thunderstorms  Fog  Heavy snow  Heavy precipitations  Wind > 20 kt
SIGMETs :     Misc.  Thunderstorms  Icing  Turbulence  Mountain Waves  Volcanic Ashes






- Airport Elevation : 670 ft
- IATA code : MSQ


UMMS - Minsk - 2

CURRENT METAR :
  • 270400Z 24003MPS 9999 BKN008 BKN036 01/01 Q0991 R88/290050 NOSIG

EXPIRED METARs :
  • 270347Z 25003MPS 9999 BKN009 01/01 Q0991 R88/290050 NOSIG
  • 270335Z 25003MPS 9999 BKN012 01/01 Q0991 R88/290050 NOSIG
  • 270300Z 27002MPS 9999 BKN022 00/00 Q0991 R88/290050 NOSIG
  • 270230Z 30002MPS 9999 BKN030 01/01 Q0991 R88/290050 NOSIG
  • 270200Z 30003MPS 9999 BKN018 01/01 Q0991 R88/290050 NOSIG
  • 270130Z 31003MPS 9999 BKN018 01/01 Q0991 R88/290050 NOSIG

TAF TAF UMMS
Valid from the 27 at 00:00 until the 28 at 00:00 UTC


262304Z 2700/2724 22006MPS 3000 -RASN BR BKN004
TEMPO 2700/2709 26007G12MPS 0500 +SHSNRA BKN003 BKN010CB
FM270900 27006G11MPS 8000 BKN006
TEMPO 2709/2724 28008G13MPS 1200 SHSN BLSN BKN003 BKN010CB



MET'MAP, your aeronautical weather chart ! - Copyright ORBIFLY December 2007 - Disclaimer

ORBIFLY MET'MAP TEAM :

Programming & Development : Alexandra Zaïnal
Concept & original design : Baudouin d'Aumeries
Assistance for programming : Marc-Olivier Méhu
Technical & hardware support : Manuel Goepfert

Contact : metmap@orbifly.com




SOURCES & CREDITS :

   NOAA